sensor_id;sensor_type;location;lat;lon;timestamp;temperature;humidity
3466;DHT22;1747;48.884;9.160;2023-04-05T00:02:09;3.30;99.90
3466;DHT22;1747;48.884;9.160;2023-04-05T00:04:38;3.30;99.90
3466;DHT22;1747;48.884;9.160;2023-04-05T00:07:16;3.20;99.90
3466;DHT22;1747;48.884;9.160;2023-04-05T00:09:43;3.10;99.90
3466;DHT22;1747;48.884;9.160;2023-04-05T00:12:10;3.00;99.90
3466;DHT22;1747;48.884;9.160;2023-04-05T00:14:37;3.00;99.90
3466;DHT22;1747;48.884;9.160;2023-04-05T00:17:05;3.00;99.90
3466;DHT22;1747;48.884;9.160;2023-04-05T00:19:32;2.90;99.90
3466;DHT22;1747;48.884;9.160;2023-04-05T00:22:01;2.70;99.90
3466;DHT22;1747;48.884;9.160;2023-04-05T00:24:28;2.70;99.90
3466;DHT22;1747;48.884;9.160;2023-04-05T00:26:55;2.60;99.90
3466;DHT22;1747;48.884;9.160;2023-04-05T00:29:22;2.60;99.90
3466;DHT22;1747;48.884;9.160;2023-04-05T00:31:49;2.50;99.90
3466;DHT22;1747;48.884;9.160;2023-04-05T00:34:17;2.50;99.90
3466;DHT22;1747;48.884;9.160;2023-04-05T00:36:43;2.50;99.90
3466;DHT22;1747;48.884;9.160;2023-04-05T00:39:10;2.50;99.90
3466;DHT22;1747;48.884;9.160;2023-04-05T00:41:37;2.50;99.90
3466;DHT22;1747;48.884;9.160;2023-04-05T00:44:05;2.60;99.90
3466;DHT22;1747;48.884;9.160;2023-04-05T00:46:33;2.60;99.90
3466;DHT22;1747;48.884;9.160;2023-04-05T00:49:01;2.60;99.90
3466;DHT22;1747;48.884;9.160;2023-04-05T00:51:30;2.60;99.90
3466;DHT22;1747;48.884;9.160;2023-04-05T00:53:58;2.60;99.90
3466;DHT22;1747;48.884;9.160;2023-04-05T00:56:26;2.60;99.90
3466;DHT22;1747;48.884;9.160;2023-04-05T00:58:53;2.70;99.90
3466;DHT22;1747;48.884;9.160;2023-04-05T01:01:21;2.70;99.90
3466;DHT22;1747;48.884;9.160;2023-04-05T01:03:52;2.70;99.90
3466;DHT22;1747;48.884;9.160;2023-04-05T01:06:39;2.70;99.90
3466;DHT22;1747;48.884;9.160;2023-04-05T01:09:15;2.70;99.90
3466;DHT22;1747;48.884;9.160;2023-04-05T01:11:44;2.70;99.90
3466;DHT22;1747;48.884;9.160;2023-04-05T01:14:13;2.80;99.90
3466;DHT22;1747;48.884;9.160;2023-04-05T01:16:40;2.70;99.90
3466;DHT22;1747;48.884;9.160;2023-04-05T01:19:06;2.70;99.90
3466;DHT22;1747;48.884;9.160;2023-04-05T01:22:12;2.70;99.90
3466;DHT22;1747;48.884;9.160;2023-04-05T01:25:08;2.60;99.90
3466;DHT22;1747;48.884;9.160;2023-04-05T01:28:01;2.50;99.90
3466;DHT22;1747;48.884;9.160;2023-04-05T01:30:35;2.50;99.90
3466;DHT22;1747;48.884;9.160;2023-04-05T01:33:09;2.50;99.90
3466;DHT22;1747;48.884;9.160;2023-04-05T01:35:42;2.50;99.90
3466;DHT22;1747;48.884;9.160;2023-04-05T01:38:12;2.50;99.90
3466;DHT22;1747;48.884;9.160;2023-04-05T01:40:43;2.50;99.90
3466;DHT22;1747;48.884;9.160;2023-04-05T01:43:13;2.50;99.90
3466;DHT22;1747;48.884;9.160;2023-04-05T01:45:41;2.50;99.90
3466;DHT22;1747;48.884;9.160;2023-04-05T01:48:08;2.40;99.90
3466;DHT22;1747;48.884;9.160;2023-04-05T01:50:35;2.50;99.90
3466;DHT22;1747;48.884;9.160;2023-04-05T01:53:01;2.50;99.90
3466;DHT22;1747;48.884;9.160;2023-04-05T01:55:28;2.50;99.90
3466;DHT22;1747;48.884;9.160;2023-04-05T01:57:56;2.50;99.90
3466;DHT22;1747;48.884;9.160;2023-04-05T02:00:23;2.50;99.90
3466;DHT22;1747;48.884;9.160;2023-04-05T02:02:51;2.40;99.90
3466;DHT22;1747;48.884;9.160;2023-04-05T02:05:18;2.40;99.90
3466;DHT22;1747;48.884;9.160;2023-04-05T02:07:45;2.40;99.90
3466;DHT22;1747;48.884;9.160;2023-04-05T02:10:11;2.50;99.90
3466;DHT22;1747;48.884;9.160;2023-04-05T02:12:38;2.40;99.90
3466;DHT22;1747;48.884;9.160;2023-04-05T02:15:06;2.40;99.90
3466;DHT22;1747;48.884;9.160;2023-04-05T02:17:33;2.40;99.90
3466;DHT22;1747;48.884;9.160;2023-04-05T02:20:06;2.20;99.90
3466;DHT22;1747;48.884;9.160;2023-04-05T02:22:32;2.10;99.90
3466;DHT22;1747;48.884;9.160;2023-04-05T02:24:59;2.10;99.90
3466;DHT22;1747;48.884;9.160;2023-04-05T02:27:28;2.10;99.90
3466;DHT22;1747;48.884;9.160;2023-04-05T02:29:54;2.10;99.90
3466;DHT22;1747;48.884;9.160;2023-04-05T02:32:22;2.10;99.90
3466;DHT22;1747;48.884;9.160;2023-04-05T02:34:48;2.10;99.90
3466;DHT22;1747;48.884;9.160;2023-04-05T02:37:18;2.10;99.90
3466;DHT22;1747;48.884;9.160;2023-04-05T02:39:45;2.10;99.90
3466;DHT22;1747;48.884;9.160;2023-04-05T02:42:12;2.00;99.90
3466;DHT22;1747;48.884;9.160;2023-04-05T02:44:38;2.00;99.90
3466;DHT22;1747;48.884;9.160;2023-04-05T02:47:05;1.90;99.90
3466;DHT22;1747;48.884;9.160;2023-04-05T02:49:32;1.80;99.90
3466;DHT22;1747;48.884;9.160;2023-04-05T02:51:59;1.70;99.90
3466;DHT22;1747;48.884;9.160;2023-04-05T02:54:27;1.70;99.90
3466;DHT22;1747;48.884;9.160;2023-04-05T02:56:54;1.80;99.90
3466;DHT22;1747;48.884;9.160;2023-04-05T02:59:22;1.80;99.90
3466;DHT22;1747;48.884;9.160;2023-04-05T03:01:49;1.80;99.90
3466;DHT22;1747;48.884;9.160;2023-04-05T03:04:16;1.90;99.90
3466;DHT22;1747;48.884;9.160;2023-04-05T03:06:43;1.90;99.90
3466;DHT22;1747;48.884;9.160;2023-04-05T03:09:13;1.90;99.90
3466;DHT22;1747;48.884;9.160;2023-04-05T03:11:41;1.90;99.90
3466;DHT22;1747;48.884;9.160;2023-04-05T03:14:08;1.90;99.90
3466;DHT22;1747;48.884;9.160;2023-04-05T03:16:36;1.90;99.90
3466;DHT22;1747;48.884;9.160;2023-04-05T03:19:04;1.80;99.90
3466;DHT22;1747;48.884;9.160;2023-04-05T03:21:31;1.70;99.90
3466;DHT22;1747;48.884;9.160;2023-04-05T03:23:59;1.70;99.90
3466;DHT22;1747;48.884;9.160;2023-04-05T03:26:26;1.60;99.90
3466;DHT22;1747;48.884;9.160;2023-04-05T03:28:54;1.50;99.90
3466;DHT22;1747;48.884;9.160;2023-04-05T03:31:21;1.40;99.90
3466;DHT22;1747;48.884;9.160;2023-04-05T03:33:48;1.30;99.90
3466;DHT22;1747;48.884;9.160;2023-04-05T03:36:14;1.30;99.90
3466;DHT22;1747;48.884;9.160;2023-04-05T03:38:43;1.30;99.90
3466;DHT22;1747;48.884;9.160;2023-04-05T03:41:10;1.30;99.90
3466;DHT22;1747;48.884;9.160;2023-04-05T03:43:37;1.40;99.90
3466;DHT22;1747;48.884;9.160;2023-04-05T03:46:05;1.30;99.90
3466;DHT22;1747;48.884;9.160;2023-04-05T03:48:33;1.20;99.90
3466;DHT22;1747;48.884;9.160;2023-04-05T03:51:01;1.10;99.90
3466;DHT22;1747;48.884;9.160;2023-04-05T03:53:29;1.00;99.90
3466;DHT22;1747;48.884;9.160;2023-04-05T03:55:57;1.00;99.90
3466;DHT22;1747;48.884;9.160;2023-04-05T03:58:25;0.90;99.90
3466;DHT22;1747;48.884;9.160;2023-04-05T04:00:57;1.00;99.90
3466;DHT22;1747;48.884;9.160;2023-04-05T04:03:25;1.00;99.90
3466;DHT22;1747;48.884;9.160;2023-04-05T04:05:53;1.10;99.90
3466;DHT22;1747;48.884;9.160;2023-04-05T04:08:20;1.20;99.90
3466;DHT22;1747;48.884;9.160;2023-04-05T04:10:49;1.20;99.90
3466;DHT22;1747;48.884;9.160;2023-04-05T04:13:16;1.20;99.90
3466;DHT22;1747;48.884;9.160;2023-04-05T04:15:43;1.30;99.90
3466;DHT22;1747;48.884;9.160;2023-04-05T04:18:18;1.30;99.90
3466;DHT22;1747;48.884;9.160;2023-04-05T04:20:49;1.30;99.90
3466;DHT22;1747;48.884;9.160;2023-04-05T04:23:16;1.30;99.90
3466;DHT22;1747;48.884;9.160;2023-04-05T04:25:43;1.30;99.90
3466;DHT22;1747;48.884;9.160;2023-04-05T04:28:11;1.30;99.90
3466;DHT22;1747;48.884;9.160;2023-04-05T04:30:44;1.40;99.90
3466;DHT22;1747;48.884;9.160;2023-04-05T04:33:11;1.40;99.90
3466;DHT22;1747;48.884;9.160;2023-04-05T04:35:38;1.30;99.90
3466;DHT22;1747;48.884;9.160;2023-04-05T04:38:07;1.30;99.90
3466;DHT22;1747;48.884;9.160;2023-04-05T04:40:37;1.20;99.90
3466;DHT22;1747;48.884;9.160;2023-04-05T04:43:04;1.10;99.90
3466;DHT22;1747;48.884;9.160;2023-04-05T04:45:31;1.00;99.90
3466;DHT22;1747;48.884;9.160;2023-04-05T04:47:59;1.00;99.90
3466;DHT22;1747;48.884;9.160;2023-04-05T04:50:30;1.00;99.90
3466;DHT22;1747;48.884;9.160;2023-04-05T04:52:58;1.00;99.90
3466;DHT22;1747;48.884;9.160;2023-04-05T04:55:26;1.00;99.90
3466;DHT22;1747;48.884;9.160;2023-04-05T04:57:53;0.90;99.90
3466;DHT22;1747;48.884;9.160;2023-04-05T05:00:21;0.80;99.90
3466;DHT22;1747;48.884;9.160;2023-04-05T05:02:50;0.80;99.90
3466;DHT22;1747;48.884;9.160;2023-04-05T05:05:17;0.80;99.90
3466;DHT22;1747;48.884;9.160;2023-04-05T05:07:47;0.80;99.90
3466;DHT22;1747;48.884;9.160;2023-04-05T05:10:14;0.80;99.90
3466;DHT22;1747;48.884;9.160;2023-04-05T05:12:45;0.90;99.90
3466;DHT22;1747;48.884;9.160;2023-04-05T05:15:13;0.90;99.90
3466;DHT22;1747;48.884;9.160;2023-04-05T05:17:40;0.90;99.90
3466;DHT22;1747;48.884;9.160;2023-04-05T05:20:08;0.90;99.90
3466;DHT22;1747;48.884;9.160;2023-04-05T05:22:37;0.90;99.90
3466;DHT22;1747;48.884;9.160;2023-04-05T05:25:05;1.00;99.90
3466;DHT22;1747;48.884;9.160;2023-04-05T05:27:36;1.00;99.90
3466;DHT22;1747;48.884;9.160;2023-04-05T05:30:06;1.10;99.90
3466;DHT22;1747;48.884;9.160;2023-04-05T05:32:33;1.10;99.90
3466;DHT22;1747;48.884;9.160;2023-04-05T05:35:00;1.10;99.90
3466;DHT22;1747;48.884;9.160;2023-04-05T05:37:28;1.20;99.90
3466;DHT22;1747;48.884;9.160;2023-04-05T05:39:56;1.20;99.90
3466;DHT22;1747;48.884;9.160;2023-04-05T05:42:25;1.30;99.90
3466;DHT22;1747;48.884;9.160;2023-04-05T05:45:02;1.20;99.90
3466;DHT22;1747;48.884;9.160;2023-04-05T05:47:30;1.20;99.90
3466;DHT22;1747;48.884;9.160;2023-04-05T05:49:57;1.30;99.90
3466;DHT22;1747;48.884;9.160;2023-04-05T05:52:26;1.30;99.90
3466;DHT22;1747;48.884;9.160;2023-04-05T05:54:52;1.40;99.90
3466;DHT22;1747;48.884;9.160;2023-04-05T05:57:19;1.50;99.90
3466;DHT22;1747;48.884;9.160;2023-04-05T05:59:46;1.50;99.90
3466;DHT22;1747;48.884;9.160;2023-04-05T06:02:13;1.50;99.90
3466;DHT22;1747;48.884;9.160;2023-04-05T06:04:41;1.60;99.90
3466;DHT22;1747;48.884;9.160;2023-04-05T06:07:08;1.60;99.90
3466;DHT22;1747;48.884;9.160;2023-04-05T06:09:38;1.70;99.90
3466;DHT22;1747;48.884;9.160;2023-04-05T06:12:11;1.80;99.90
3466;DHT22;1747;48.884;9.160;2023-04-05T06:14:38;1.80;99.90
3466;DHT22;1747;48.884;9.160;2023-04-05T06:17:04;1.90;99.90
3466;DHT22;1747;48.884;9.160;2023-04-05T06:19:34;2.00;99.90
3466;DHT22;1747;48.884;9.160;2023-04-05T06:22:02;2.10;99.90
3466;DHT22;1747;48.884;9.160;2023-04-05T06:24:29;2.10;99.90
3466;DHT22;1747;48.884;9.160;2023-04-05T06:26:59;2.20;99.90
3466;DHT22;1747;48.884;9.160;2023-04-05T06:29:26;2.20;99.90
3466;DHT22;1747;48.884;9.160;2023-04-05T06:31:54;2.30;99.90
3466;DHT22;1747;48.884;9.160;2023-04-05T06:34:23;2.40;99.90
3466;DHT22;1747;48.884;9.160;2023-04-05T06:36:50;2.40;99.90
3466;DHT22;1747;48.884;9.160;2023-04-05T06:39:18;2.50;99.90
3466;DHT22;1747;48.884;9.160;2023-04-05T06:41:45;2.50;99.90
3466;DHT22;1747;48.884;9.160;2023-04-05T06:44:11;2.50;99.90
3466;DHT22;1747;48.884;9.160;2023-04-05T06:46:38;2.70;99.90
3466;DHT22;1747;48.884;9.160;2023-04-05T06:49:05;2.80;99.90
3466;DHT22;1747;48.884;9.160;2023-04-05T06:51:32;3.00;99.90
3466;DHT22;1747;48.884;9.160;2023-04-05T06:53:58;3.10;99.90
3466;DHT22;1747;48.884;9.160;2023-04-05T06:56:28;3.30;99.90
3466;DHT22;1747;48.884;9.160;2023-04-05T06:58:55;3.50;99.90
3466;DHT22;1747;48.884;9.160;2023-04-05T07:01:24;3.70;99.90
3466;DHT22;1747;48.884;9.160;2023-04-05T07:03:50;4.00;99.90
3466;DHT22;1747;48.884;9.160;2023-04-05T07:06:17;4.20;99.90
3466;DHT22;1747;48.884;9.160;2023-04-05T07:08:44;4.30;99.90
3466;DHT22;1747;48.884;9.160;2023-04-05T07:11:13;4.40;99.90
3466;DHT22;1747;48.884;9.160;2023-04-05T07:13:42;4.30;99.90
3466;DHT22;1747;48.884;9.160;2023-04-05T07:16:11;4.30;99.90
3466;DHT22;1747;48.884;9.160;2023-04-05T07:18:37;4.30;99.90
3466;DHT22;1747;48.884;9.160;2023-04-05T07:21:04;4.30;99.90
3466;DHT22;1747;48.884;9.160;2023-04-05T07:23:31;4.20;99.90
3466;DHT22;1747;48.884;9.160;2023-04-05T07:26:02;4.20;99.90
3466;DHT22;1747;48.884;9.160;2023-04-05T07:28:30;4.30;99.90
3466;DHT22;1747;48.884;9.160;2023-04-05T07:30:59;4.30;99.90
3466;DHT22;1747;48.884;9.160;2023-04-05T07:33:25;4.30;99.90
3466;DHT22;1747;48.884;9.160;2023-04-05T07:35:53;4.20;99.90
3466;DHT22;1747;48.884;9.160;2023-04-05T07:38:20;4.20;99.90
3466;DHT22;1747;48.884;9.160;2023-04-05T07:40:47;4.30;99.90
3466;DHT22;1747;48.884;9.160;2023-04-05T07:43:14;4.40;99.90
3466;DHT22;1747;48.884;9.160;2023-04-05T07:45:41;4.50;99.90
3466;DHT22;1747;48.884;9.160;2023-04-05T07:48:09;4.80;99.90
3466;DHT22;1747;48.884;9.160;2023-04-05T07:50:35;4.90;99.90
3466;DHT22;1747;48.884;9.160;2023-04-05T07:53:06;5.00;99.90
3466;DHT22;1747;48.884;9.160;2023-04-05T07:55:36;5.10;99.90
3466;DHT22;1747;48.884;9.160;2023-04-05T07:58:03;5.20;99.90
3466;DHT22;1747;48.884;9.160;2023-04-05T08:00:30;5.30;99.90
3466;DHT22;1747;48.884;9.160;2023-04-05T08:02:56;5.30;99.90
3466;DHT22;1747;48.884;9.160;2023-04-05T08:05:26;5.50;99.90
3466;DHT22;1747;48.884;9.160;2023-04-05T08:07:53;5.50;99.90
3466;DHT22;1747;48.884;9.160;2023-04-05T08:10:22;5.30;99.90
3466;DHT22;1747;48.884;9.160;2023-04-05T08:12:49;5.50;99.90
3466;DHT22;1747;48.884;9.160;2023-04-05T08:15:16;5.70;99.90
3466;DHT22;1747;48.884;9.160;2023-04-05T08:17:43;5.70;99.90
3466;DHT22;1747;48.884;9.160;2023-04-05T08:20:10;5.90;99.90
3466;DHT22;1747;48.884;9.160;2023-04-05T08:22:38;5.90;99.90
3466;DHT22;1747;48.884;9.160;2023-04-05T08:25:07;6.00;99.30
3466;DHT22;1747;48.884;9.160;2023-04-05T08:27:34;6.20;99.90
3466;DHT22;1747;48.884;9.160;2023-04-05T08:30:01;6.30;99.90
3466;DHT22;1747;48.884;9.160;2023-04-05T08:32:28;6.40;99.10
3466;DHT22;1747;48.884;9.160;2023-04-05T08:34:55;6.40;99.40
3466;DHT22;1747;48.884;9.160;2023-04-05T08:37:22;6.50;99.10
3466;DHT22;1747;48.884;9.160;2023-04-05T08:39:50;6.60;99.00
3466;DHT22;1747;48.884;9.160;2023-04-05T08:42:22;6.80;99.00
3466;DHT22;1747;48.884;9.160;2023-04-05T08:44:51;7.00;97.70
3466;DHT22;1747;48.884;9.160;2023-04-05T08:47:18;7.00;97.70
3466;DHT22;1747;48.884;9.160;2023-04-05T08:49:46;7.20;96.50
3466;DHT22;1747;48.884;9.160;2023-04-05T08:52:13;7.30;96.00
3466;DHT22;1747;48.884;9.160;2023-04-05T08:54:40;7.30;94.80
3466;DHT22;1747;48.884;9.160;2023-04-05T08:57:08;7.40;93.80
3466;DHT22;1747;48.884;9.160;2023-04-05T08:59:37;7.40;93.90
3466;DHT22;1747;48.884;9.160;2023-04-05T09:02:13;7.50;93.20
3466;DHT22;1747;48.884;9.160;2023-04-05T09:04:42;7.60;94.80
3466;DHT22;1747;48.884;9.160;2023-04-05T09:07:11;7.80;93.50
3466;DHT22;1747;48.884;9.160;2023-04-05T09:09:41;7.90;91.40
3466;DHT22;1747;48.884;9.160;2023-04-05T09:12:11;8.00;89.60
3466;DHT22;1747;48.884;9.160;2023-04-05T09:14:38;7.90;90.80
3466;DHT22;1747;48.884;9.160;2023-04-05T09:17:05;8.10;90.70
3466;DHT22;1747;48.884;9.160;2023-04-05T09:19:32;8.30;90.10
3466;DHT22;1747;48.884;9.160;2023-04-05T09:22:01;8.40;92.20
3466;DHT22;1747;48.884;9.160;2023-04-05T09:24:35;8.30;88.90
3466;DHT22;1747;48.884;9.160;2023-04-05T09:27:06;8.40;90.00
3466;DHT22;1747;48.884;9.160;2023-04-05T09:29:35;8.50;89.90
3466;DHT22;1747;48.884;9.160;2023-04-05T09:32:02;8.50;90.40
3466;DHT22;1747;48.884;9.160;2023-04-05T09:34:30;8.70;88.80
3466;DHT22;1747;48.884;9.160;2023-04-05T09:36:58;8.80;89.00
3466;DHT22;1747;48.884;9.160;2023-04-05T09:39:28;8.50;85.00
3466;DHT22;1747;48.884;9.160;2023-04-05T09:42:05;8.60;84.60
3466;DHT22;1747;48.884;9.160;2023-04-05T09:44:52;8.70;85.80
3466;DHT22;1747;48.884;9.160;2023-04-05T09:47:21;8.70;90.00
3466;DHT22;1747;48.884;9.160;2023-04-05T09:49:49;8.70;83.30
3466;DHT22;1747;48.884;9.160;2023-04-05T09:52:20;8.90;86.70
3466;DHT22;1747;48.884;9.160;2023-04-05T09:54:48;8.90;82.80
3466;DHT22;1747;48.884;9.160;2023-04-05T09:57:15;8.70;80.70
3466;DHT22;1747;48.884;9.160;2023-04-05T09:59:43;8.90;81.50
3466;DHT22;1747;48.884;9.160;2023-04-05T10:02:11;8.90;83.60
3466;DHT22;1747;48.884;9.160;2023-04-05T10:04:39;9.10;84.70
3466;DHT22;1747;48.884;9.160;2023-04-05T10:07:07;9.20;82.80
3466;DHT22;1747;48.884;9.160;2023-04-05T10:09:34;9.20;83.30
3466;DHT22;1747;48.884;9.160;2023-04-05T10:12:02;9.30;83.30
3466;DHT22;1747;48.884;9.160;2023-04-05T10:14:29;9.30;83.20
3466;DHT22;1747;48.884;9.160;2023-04-05T10:17:03;9.30;78.70
3466;DHT22;1747;48.884;9.160;2023-04-05T10:19:44;8.90;79.80
3466;DHT22;1747;48.884;9.160;2023-04-05T10:22:17;9.10;81.70
3466;DHT22;1747;48.884;9.160;2023-04-05T10:24:51;9.20;88.60
3466;DHT22;1747;48.884;9.160;2023-04-05T10:27:22;9.40;87.20
3466;DHT22;1747;48.884;9.160;2023-04-05T10:30:02;9.50;85.70
3466;DHT22;1747;48.884;9.160;2023-04-05T10:32:40;9.50;85.70
3466;DHT22;1747;48.884;9.160;2023-04-05T10:35:15;9.70;86.90
3466;DHT22;1747;48.884;9.160;2023-04-05T10:37:53;9.70;81.80
3466;DHT22;1747;48.884;9.160;2023-04-05T10:40:26;9.70;82.50
3466;DHT22;1747;48.884;9.160;2023-04-05T10:42:55;9.80;84.80
3466;DHT22;1747;48.884;9.160;2023-04-05T10:45:22;9.90;81.80
3466;DHT22;1747;48.884;9.160;2023-04-05T10:47:54;10.10;84.50
3466;DHT22;1747;48.884;9.160;2023-04-05T10:50:23;10.30;82.00
3466;DHT22;1747;48.884;9.160;2023-04-05T10:52:51;10.40;84.00
3466;DHT22;1747;48.884;9.160;2023-04-05T10:55:18;10.30;78.50
3466;DHT22;1747;48.884;9.160;2023-04-05T10:57:46;10.30;79.30
3466;DHT22;1747;48.884;9.160;2023-04-05T11:00:15;10.30;78.90
3466;DHT22;1747;48.884;9.160;2023-04-05T11:02:43;10.40;79.60
3466;DHT22;1747;48.884;9.160;2023-04-05T11:05:30;10.40;77.30
3466;DHT22;1747;48.884;9.160;2023-04-05T11:08:01;10.70;76.60
3466;DHT22;1747;48.884;9.160;2023-04-05T11:10:29;10.70;75.40
3466;DHT22;1747;48.884;9.160;2023-04-05T11:13:06;10.70;75.50
3466;DHT22;1747;48.884;9.160;2023-04-05T11:15:35;10.70;77.40
3466;DHT22;1747;48.884;9.160;2023-04-05T11:18:07;10.80;75.20
3466;DHT22;1747;48.884;9.160;2023-04-05T11:20:46;10.80;75.40
3466;DHT22;1747;48.884;9.160;2023-04-05T11:23:17;10.60;76.70
3466;DHT22;1747;48.884;9.160;2023-04-05T11:25:50;10.60;74.50
3466;DHT22;1747;48.884;9.160;2023-04-05T11:28:22;10.40;74.60
3466;DHT22;1747;48.884;9.160;2023-04-05T11:30:50;10.30;74.90
3466;DHT22;1747;48.884;9.160;2023-04-05T11:33:52;10.50;75.90
3466;DHT22;1747;48.884;9.160;2023-04-05T11:36:37;10.50;75.80
3466;DHT22;1747;48.884;9.160;2023-04-05T11:39:25;10.50;75.50
3466;DHT22;1747;48.884;9.160;2023-04-05T11:42:00;10.60;73.30
3466;DHT22;1747;48.884;9.160;2023-04-05T11:44:27;10.80;74.70
3466;DHT22;1747;48.884;9.160;2023-04-05T11:46:56;10.90;74.70
3466;DHT22;1747;48.884;9.160;2023-04-05T11:49:23;11.00;73.80
3466;DHT22;1747;48.884;9.160;2023-04-05T11:51:52;11.10;73.80
3466;DHT22;1747;48.884;9.160;2023-04-05T11:54:29;11.30;73.50
3466;DHT22;1747;48.884;9.160;2023-04-05T11:56:56;11.40;72.10
3466;DHT22;1747;48.884;9.160;2023-04-05T11:59:31;11.50;71.30
3466;DHT22;1747;48.884;9.160;2023-04-05T12:02:02;11.70;71.20
3466;DHT22;1747;48.884;9.160;2023-04-05T12:04:30;11.90;71.00
3466;DHT22;1747;48.884;9.160;2023-04-05T12:07:15;12.10;69.10
3466;DHT22;1747;48.884;9.160;2023-04-05T12:09:58;12.40;68.90
3466;DHT22;1747;48.884;9.160;2023-04-05T12:12:26;13.00;67.60
3466;DHT22;1747;48.884;9.160;2023-04-05T12:14:58;13.50;66.70
3466;DHT22;1747;48.884;9.160;2023-04-05T12:17:37;14.00;69.90
3466;DHT22;1747;48.884;9.160;2023-04-05T12:20:05;14.70;65.20
3466;DHT22;1747;48.884;9.160;2023-04-05T12:22:34;14.90;63.80
3466;DHT22;1747;48.884;9.160;2023-04-05T12:25:02;15.40;65.50
3466;DHT22;1747;48.884;9.160;2023-04-05T12:27:28;15.80;63.40
3466;DHT22;1747;48.884;9.160;2023-04-05T12:30:12;16.20;63.50
3466;DHT22;1747;48.884;9.160;2023-04-05T12:32:41;16.50;61.50
3466;DHT22;1747;48.884;9.160;2023-04-05T12:35:12;16.80;59.40
3466;DHT22;1747;48.884;9.160;2023-04-05T12:37:40;17.10;61.00
3466;DHT22;1747;48.884;9.160;2023-04-05T12:40:08;17.70;55.90
3466;DHT22;1747;48.884;9.160;2023-04-05T12:42:36;17.60;61.00
3466;DHT22;1747;48.884;9.160;2023-04-05T12:45:05;17.80;60.20
3466;DHT22;1747;48.884;9.160;2023-04-05T12:47:33;17.80;57.10
3466;DHT22;1747;48.884;9.160;2023-04-05T12:50:11;18.10;55.50
3466;DHT22;1747;48.884;9.160;2023-04-05T12:52:51;18.30;53.50
3466;DHT22;1747;48.884;9.160;2023-04-05T12:55:18;18.20;53.60
3466;DHT22;1747;48.884;9.160;2023-04-05T12:57:48;18.60;50.90
3466;DHT22;1747;48.884;9.160;2023-04-05T13:00:16;18.50;51.10
3466;DHT22;1747;48.884;9.160;2023-04-05T13:02:47;18.60;51.60
3466;DHT22;1747;48.884;9.160;2023-04-05T13:05:15;19.20;51.80
3466;DHT22;1747;48.884;9.160;2023-04-05T13:07:43;19.10;50.20
3466;DHT22;1747;48.884;9.160;2023-04-05T13:10:10;19.30;48.10
3466;DHT22;1747;48.884;9.160;2023-04-05T13:12:37;19.20;48.30
3466;DHT22;1747;48.884;9.160;2023-04-05T13:15:05;19.50;48.20
3466;DHT22;1747;48.884;9.160;2023-04-05T13:17:32;19.80;47.30
3466;DHT22;1747;48.884;9.160;2023-04-05T13:19:59;19.80;48.10
3466;DHT22;1747;48.884;9.160;2023-04-05T13:22:26;19.70;48.90
3466;DHT22;1747;48.884;9.160;2023-04-05T13:24:54;19.90;48.90
3466;DHT22;1747;48.884;9.160;2023-04-05T13:27:21;20.50;45.20
3466;DHT22;1747;48.884;9.160;2023-04-05T13:29:47;20.40;45.10
3466;DHT22;1747;48.884;9.160;2023-04-05T13:32:14;20.50;44.10
3466;DHT22;1747;48.884;9.160;2023-04-05T13:34:41;20.50;44.60
3466;DHT22;1747;48.884;9.160;2023-04-05T13:37:08;21.10;46.80
3466;DHT22;1747;48.884;9.160;2023-04-05T13:39:35;20.80;47.00
3466;DHT22;1747;48.884;9.160;2023-04-05T13:42:03;20.40;45.30
3466;DHT22;1747;48.884;9.160;2023-04-05T13:44:30;20.00;45.80
3466;DHT22;1747;48.884;9.160;2023-04-05T13:46:57;20.20;47.60
3466;DHT22;1747;48.884;9.160;2023-04-05T13:49:24;20.80;45.90
3466;DHT22;1747;48.884;9.160;2023-04-05T13:51:54;21.10;44.40
3466;DHT22;1747;48.884;9.160;2023-04-05T13:54:21;21.30;44.90
3466;DHT22;1747;48.884;9.160;2023-04-05T13:56:48;21.30;44.30
3466;DHT22;1747;48.884;9.160;2023-04-05T13:59:16;21.30;45.10
3466;DHT22;1747;48.884;9.160;2023-04-05T14:01:44;21.80;46.40
3466;DHT22;1747;48.884;9.160;2023-04-05T14:04:10;22.20;46.20
3466;DHT22;1747;48.884;9.160;2023-04-05T14:06:37;22.30;46.00
3466;DHT22;1747;48.884;9.160;2023-04-05T14:09:04;21.80;45.70
3466;DHT22;1747;48.884;9.160;2023-04-05T14:11:31;21.80;46.70
3466;DHT22;1747;48.884;9.160;2023-04-05T14:13:58;22.00;45.00
3466;DHT22;1747;48.884;9.160;2023-04-05T14:16:26;22.00;45.60
3466;DHT22;1747;48.884;9.160;2023-04-05T14:18:53;22.10;42.90
3466;DHT22;1747;48.884;9.160;2023-04-05T14:21:21;22.30;43.00
3466;DHT22;1747;48.884;9.160;2023-04-05T14:23:48;22.40;44.00
3466;DHT22;1747;48.884;9.160;2023-04-05T14:26:17;21.50;41.80
3466;DHT22;1747;48.884;9.160;2023-04-05T14:28:44;21.90;42.90
3466;DHT22;1747;48.884;9.160;2023-04-05T14:31:11;22.00;42.50
3466;DHT22;1747;48.884;9.160;2023-04-05T14:33:40;22.40;43.70
3466;DHT22;1747;48.884;9.160;2023-04-05T14:36:07;23.30;42.80
3466;DHT22;1747;48.884;9.160;2023-04-05T14:38:34;23.70;41.50
3466;DHT22;1747;48.884;9.160;2023-04-05T14:41:01;23.90;42.10
3466;DHT22;1747;48.884;9.160;2023-04-05T14:43:30;23.80;41.00
3466;DHT22;1747;48.884;9.160;2023-04-05T14:45:57;23.60;42.50
3466;DHT22;1747;48.884;9.160;2023-04-05T14:48:24;23.20;41.40
3466;DHT22;1747;48.884;9.160;2023-04-05T14:50:53;23.50;42.90
3466;DHT22;1747;48.884;9.160;2023-04-05T14:53:21;23.70;41.50
3466;DHT22;1747;48.884;9.160;2023-04-05T14:55:48;23.60;39.50
3466;DHT22;1747;48.884;9.160;2023-04-05T14:58:14;23.30;40.70
3466;DHT22;1747;48.884;9.160;2023-04-05T15:00:42;23.30;41.60
3466;DHT22;1747;48.884;9.160;2023-04-05T15:03:09;23.20;41.10
3466;DHT22;1747;48.884;9.160;2023-04-05T15:05:36;23.30;39.80
3466;DHT22;1747;48.884;9.160;2023-04-05T15:08:04;23.10;40.70
3466;DHT22;1747;48.884;9.160;2023-04-05T15:10:32;23.10;40.30
3466;DHT22;1747;48.884;9.160;2023-04-05T15:12:59;23.20;40.90
3466;DHT22;1747;48.884;9.160;2023-04-05T15:15:26;24.00;42.20
3466;DHT22;1747;48.884;9.160;2023-04-05T15:17:52;24.20;39.90
3466;DHT22;1747;48.884;9.160;2023-04-05T15:20:19;24.00;39.50
3466;DHT22;1747;48.884;9.160;2023-04-05T15:22:46;23.80;39.40
3466;DHT22;1747;48.884;9.160;2023-04-05T15:25:15;23.90;41.00
3466;DHT22;1747;48.884;9.160;2023-04-05T15:27:42;23.90;38.50
3466;DHT22;1747;48.884;9.160;2023-04-05T15:30:10;23.60;38.80
3466;DHT22;1747;48.884;9.160;2023-04-05T15:32:37;23.60;38.40
3466;DHT22;1747;48.884;9.160;2023-04-05T15:35:04;23.30;38.50
3466;DHT22;1747;48.884;9.160;2023-04-05T15:37:31;22.90;38.40
3466;DHT22;1747;48.884;9.160;2023-04-05T15:39:58;22.60;38.60
3466;DHT22;1747;48.884;9.160;2023-04-05T15:42:26;22.30;39.00
3466;DHT22;1747;48.884;9.160;2023-04-05T15:44:53;22.30;38.40
3466;DHT22;1747;48.884;9.160;2023-04-05T15:47:20;22.30;39.50
3466;DHT22;1747;48.884;9.160;2023-04-05T15:49:48;22.10;38.90
3466;DHT22;1747;48.884;9.160;2023-04-05T15:52:16;21.80;43.70
3466;DHT22;1747;48.884;9.160;2023-04-05T15:54:43;21.70;40.40
3466;DHT22;1747;48.884;9.160;2023-04-05T15:57:10;21.20;39.80
3466;DHT22;1747;48.884;9.160;2023-04-05T15:59:39;20.50;41.20
3466;DHT22;1747;48.884;9.160;2023-04-05T16:02:06;20.60;41.10
3466;DHT22;1747;48.884;9.160;2023-04-05T16:04:33;20.60;46.80
3466;DHT22;1747;48.884;9.160;2023-04-05T16:07:00;20.90;43.70
3466;DHT22;1747;48.884;9.160;2023-04-05T16:09:27;20.70;41.00
3466;DHT22;1747;48.884;9.160;2023-04-05T16:11:54;20.30;41.00
3466;DHT22;1747;48.884;9.160;2023-04-05T16:14:21;20.10;41.20
3466;DHT22;1747;48.884;9.160;2023-04-05T16:16:50;19.80;41.00
3466;DHT22;1747;48.884;9.160;2023-04-05T16:19:16;19.80;44.00
3466;DHT22;1747;48.884;9.160;2023-04-05T16:21:43;19.90;46.20
3466;DHT22;1747;48.884;9.160;2023-04-05T16:24:11;19.70;42.30